sensor_id;sensor_type;location;lat;lon;timestamp;P1;durP1;ratioP1;P2;durP2;ratioP2
2119;SDS011;1066;52.540;13.420;2023-02-01T00:01:36;13.20;;;3.93;;
2119;SDS011;1066;52.540;13.420;2023-02-01T00:04:01;9.20;;;3.70;;
2119;SDS011;1066;52.540;13.420;2023-02-01T00:06:27;12.30;;;3.40;;
2119;SDS011;1066;52.540;13.420;2023-02-01T00:08:53;8.87;;;4.37;;
2119;SDS011;1066;52.540;13.420;2023-02-01T00:11:19;12.90;;;4.00;;
2119;SDS011;1066;52.540;13.420;2023-02-01T00:13:45;9.97;;;4.27;;
2119;SDS011;1066;52.540;13.420;2023-02-01T00:16:11;11.43;;;4.13;;
2119;SDS011;1066;52.540;13.420;2023-02-01T00:18:39;9.93;;;4.30;;
2119;SDS011;1066;52.540;13.420;2023-02-01T00:21:04;17.23;;;4.23;;
2119;SDS011;1066;52.540;13.420;2023-02-01T00:23:34;17.53;;;5.23;;
2119;SDS011;1066;52.540;13.420;2023-02-01T00:26:00;14.20;;;4.63;;
2119;SDS011;1066;52.540;13.420;2023-02-01T00:28:26;13.90;;;3.87;;
2119;SDS011;1066;52.540;13.420;2023-02-01T00:31:02;9.93;;;3.33;;
2119;SDS011;1066;52.540;13.420;2023-02-01T00:33:28;24.30;;;4.93;;
2119;SDS011;1066;52.540;13.420;2023-02-01T00:35:58;13.10;;;3.50;;
2119;SDS011;1066;52.540;13.420;2023-02-01T00:38:25;13.40;;;5.40;;
2119;SDS011;1066;52.540;13.420;2023-02-01T00:40:51;8.77;;;3.77;;
2119;SDS011;1066;52.540;13.420;2023-02-01T00:43:16;21.47;;;4.43;;
2119;SDS011;1066;52.540;13.420;2023-02-01T00:45:42;10.43;;;4.37;;
2119;SDS011;1066;52.540;13.420;2023-02-01T00:48:07;12.00;;;3.90;;
2119;SDS011;1066;52.540;13.420;2023-02-01T00:50:32;9.10;;;3.77;;
2119;SDS011;1066;52.540;13.420;2023-02-01T00:52:59;11.40;;;3.60;;
2119;SDS011;1066;52.540;13.420;2023-02-01T00:55:24;8.63;;;3.53;;
2119;SDS011;1066;52.540;13.420;2023-02-01T00:57:50;10.87;;;3.80;;
2119;SDS011;1066;52.540;13.420;2023-02-01T01:00:15;11.87;;;2.97;;
2119;SDS011;1066;52.540;13.420;2023-02-01T01:02:41;8.87;;;2.97;;
2119;SDS011;1066;52.540;13.420;2023-02-01T01:05:06;11.50;;;3.53;;
2119;SDS011;1066;52.540;13.420;2023-02-01T01:07:32;10.10;;;4.63;;
2119;SDS011;1066;52.540;13.420;2023-02-01T01:09:57;14.70;;;4.20;;
2119;SDS011;1066;52.540;13.420;2023-02-01T01:12:23;8.03;;;3.40;;
2119;SDS011;1066;52.540;13.420;2023-02-01T01:14:48;8.00;;;3.57;;
2119;SDS011;1066;52.540;13.420;2023-02-01T01:17:13;5.80;;;3.07;;
2119;SDS011;1066;52.540;13.420;2023-02-01T01:19:38;11.87;;;3.10;;
2119;SDS011;1066;52.540;13.420;2023-02-01T01:22:04;8.37;;;3.80;;
2119;SDS011;1066;52.540;13.420;2023-02-01T01:24:29;10.17;;;3.30;;
2119;SDS011;1066;52.540;13.420;2023-02-01T01:26:54;11.53;;;3.37;;
2119;SDS011;1066;52.540;13.420;2023-02-01T01:29:20;12.37;;;3.57;;
2119;SDS011;1066;52.540;13.420;2023-02-01T01:31:45;12.67;;;3.00;;
2119;SDS011;1066;52.540;13.420;2023-02-01T01:34:10;8.83;;;3.33;;
2119;SDS011;1066;52.540;13.420;2023-02-01T01:36:36;7.93;;;3.33;;
2119;SDS011;1066;52.540;13.420;2023-02-01T01:39:01;10.03;;;3.40;;
2119;SDS011;1066;52.540;13.420;2023-02-01T01:41:29;13.53;;;3.67;;
2119;SDS011;1066;52.540;13.420;2023-02-01T01:43:57;18.43;;;6.00;;
2119;SDS011;1066;52.540;13.420;2023-02-01T01:46:25;12.93;;;3.30;;
2119;SDS011;1066;52.540;13.420;2023-02-01T01:51:35;9.83;;;3.47;;
2119;SDS011;1066;52.540;13.420;2023-02-01T01:54:03;9.47;;;3.50;;
2119;SDS011;1066;52.540;13.420;2023-02-01T01:56:36;10.13;;;3.80;;
2119;SDS011;1066;52.540;13.420;2023-02-01T01:59:02;10.43;;;5.23;;
2119;SDS011;1066;52.540;13.420;2023-02-01T02:01:29;16.57;;;3.50;;
2119;SDS011;1066;52.540;13.420;2023-02-01T02:03:55;14.37;;;3.70;;
2119;SDS011;1066;52.540;13.420;2023-02-01T02:08:55;14.97;;;3.77;;
2119;SDS011;1066;52.540;13.420;2023-02-01T02:11:20;9.33;;;4.00;;
2119;SDS011;1066;52.540;13.420;2023-02-01T02:13:48;9.77;;;3.20;;
2119;SDS011;1066;52.540;13.420;2023-02-01T02:18:55;9.10;;;3.30;;
2119;SDS011;1066;52.540;13.420;2023-02-01T02:21:48;12.23;;;3.93;;
2119;SDS011;1066;52.540;13.420;2023-02-01T02:29:59;11.77;;;4.00;;
2119;SDS011;1066;52.540;13.420;2023-02-01T02:37:51;13.40;;;4.07;;
2119;SDS011;1066;52.540;13.420;2023-02-01T02:43:10;17.63;;;4.50;;
2119;SDS011;1066;52.540;13.420;2023-02-01T02:46:01;12.30;;;4.30;;
2119;SDS011;1066;52.540;13.420;2023-02-01T02:48:52;12.20;;;4.93;;
2119;SDS011;1066;52.540;13.420;2023-02-01T02:51:30;15.03;;;4.90;;
2119;SDS011;1066;52.540;13.420;2023-02-01T02:54:19;15.50;;;3.97;;
2119;SDS011;1066;52.540;13.420;2023-02-01T02:57:08;18.80;;;3.90;;
2119;SDS011;1066;52.540;13.420;2023-02-01T02:59:54;13.90;;;5.20;;
2119;SDS011;1066;52.540;13.420;2023-02-01T03:02:41;14.23;;;4.97;;
2119;SDS011;1066;52.540;13.420;2023-02-01T03:05:25;14.27;;;4.73;;
2119;SDS011;1066;52.540;13.420;2023-02-01T03:10:41;10.83;;;3.63;;
2119;SDS011;1066;52.540;13.420;2023-02-01T03:13:51;10.37;;;3.93;;
2119;SDS011;1066;52.540;13.420;2023-02-01T03:18:53;12.80;;;4.63;;
2119;SDS011;1066;52.540;13.420;2023-02-01T03:21:32;12.73;;;4.50;;
2119;SDS011;1066;52.540;13.420;2023-02-01T03:24:00;11.80;;;4.53;;
2119;SDS011;1066;52.540;13.420;2023-02-01T03:26:28;14.07;;;4.17;;
2119;SDS011;1066;52.540;13.420;2023-02-01T03:28:57;20.83;;;6.13;;
2119;SDS011;1066;52.540;13.420;2023-02-01T03:31:27;8.70;;;3.57;;
2119;SDS011;1066;52.540;13.420;2023-02-01T03:33:53;9.33;;;4.10;;
2119;SDS011;1066;52.540;13.420;2023-02-01T03:36:25;18.43;;;4.17;;
2119;SDS011;1066;52.540;13.420;2023-02-01T03:39:04;22.27;;;4.00;;
2119;SDS011;1066;52.540;13.420;2023-02-01T03:44:39;11.93;;;3.17;;
2119;SDS011;1066;52.540;13.420;2023-02-01T03:47:26;16.27;;;3.70;;
2119;SDS011;1066;52.540;13.420;2023-02-01T03:49:54;6.70;;;3.53;;
2119;SDS011;1066;52.540;13.420;2023-02-01T03:52:24;8.10;;;3.60;;
2119;SDS011;1066;52.540;13.420;2023-02-01T03:54:51;12.77;;;4.20;;
2119;SDS011;1066;52.540;13.420;2023-02-01T03:57:19;12.70;;;4.23;;
2119;SDS011;1066;52.540;13.420;2023-02-01T03:59:49;10.40;;;4.07;;
2119;SDS011;1066;52.540;13.420;2023-02-01T04:02:14;14.93;;;4.10;;
2119;SDS011;1066;52.540;13.420;2023-02-01T04:04:40;13.20;;;3.97;;
2119;SDS011;1066;52.540;13.420;2023-02-01T04:07:05;11.80;;;4.83;;
2119;SDS011;1066;52.540;13.420;2023-02-01T04:09:30;11.93;;;4.57;;
2119;SDS011;1066;52.540;13.420;2023-02-01T04:11:56;21.03;;;4.73;;
2119;SDS011;1066;52.540;13.420;2023-02-01T04:14:21;11.67;;;3.90;;
2119;SDS011;1066;52.540;13.420;2023-02-01T04:16:46;14.53;;;3.77;;
2119;SDS011;1066;52.540;13.420;2023-02-01T04:19:12;13.83;;;4.20;;
2119;SDS011;1066;52.540;13.420;2023-02-01T04:21:37;10.67;;;4.50;;
2119;SDS011;1066;52.540;13.420;2023-02-01T04:24:03;17.27;;;4.43;;
2119;SDS011;1066;52.540;13.420;2023-02-01T04:26:28;10.43;;;4.60;;
2119;SDS011;1066;52.540;13.420;2023-02-01T04:28:54;16.80;;;4.63;;
2119;SDS011;1066;52.540;13.420;2023-02-01T04:31:19;12.13;;;3.40;;
2119;SDS011;1066;52.540;13.420;2023-02-01T04:33:53;11.93;;;4.20;;
2119;SDS011;1066;52.540;13.420;2023-02-01T04:36:19;8.03;;;4.93;;
2119;SDS011;1066;52.540;13.420;2023-02-01T04:38:51;15.20;;;4.20;;
2119;SDS011;1066;52.540;13.420;2023-02-01T04:41:16;8.97;;;3.57;;
2119;SDS011;1066;52.540;13.420;2023-02-01T04:43:44;14.57;;;4.57;;
2119;SDS011;1066;52.540;13.420;2023-02-01T04:46:12;11.23;;;4.83;;
2119;SDS011;1066;52.540;13.420;2023-02-01T04:48:37;10.93;;;3.77;;
2119;SDS011;1066;52.540;13.420;2023-02-01T04:51:03;7.50;;;3.87;;
2119;SDS011;1066;52.540;13.420;2023-02-01T04:53:29;11.43;;;3.93;;
2119;SDS011;1066;52.540;13.420;2023-02-01T04:55:55;12.40;;;4.50;;
2119;SDS011;1066;52.540;13.420;2023-02-01T04:58:20;13.13;;;4.60;;
2119;SDS011;1066;52.540;13.420;2023-02-01T05:00:45;9.50;;;3.50;;
2119;SDS011;1066;52.540;13.420;2023-02-01T05:03:11;11.23;;;4.57;;
2119;SDS011;1066;52.540;13.420;2023-02-01T05:05:36;13.90;;;4.00;;
2119;SDS011;1066;52.540;13.420;2023-02-01T05:08:01;9.00;;;3.10;;
2119;SDS011;1066;52.540;13.420;2023-02-01T05:10:27;13.70;;;3.60;;
2119;SDS011;1066;52.540;13.420;2023-02-01T05:12:52;13.27;;;4.93;;
2119;SDS011;1066;52.540;13.420;2023-02-01T05:15:36;17.17;;;4.20;;
2119;SDS011;1066;52.540;13.420;2023-02-01T05:18:01;13.53;;;4.23;;
2119;SDS011;1066;52.540;13.420;2023-02-01T05:20:27;14.50;;;4.53;;
2119;SDS011;1066;52.540;13.420;2023-02-01T05:22:52;22.87;;;5.67;;
2119;SDS011;1066;52.540;13.420;2023-02-01T05:25:17;11.50;;;3.57;;
2119;SDS011;1066;52.540;13.420;2023-02-01T05:27:43;14.30;;;5.10;;
2119;SDS011;1066;52.540;13.420;2023-02-01T05:30:09;13.20;;;4.17;;
2119;SDS011;1066;52.540;13.420;2023-02-01T05:32:35;11.10;;;3.77;;
2119;SDS011;1066;52.540;13.420;2023-02-01T05:35:00;14.73;;;4.37;;
2119;SDS011;1066;52.540;13.420;2023-02-01T05:37:26;12.93;;;4.70;;
2119;SDS011;1066;52.540;13.420;2023-02-01T05:39:51;11.13;;;4.50;;
2119;SDS011;1066;52.540;13.420;2023-02-01T05:42:16;10.53;;;4.47;;
2119;SDS011;1066;52.540;13.420;2023-02-01T05:44:42;17.90;;;4.20;;
2119;SDS011;1066;52.540;13.420;2023-02-01T05:47:07;11.03;;;5.73;;
2119;SDS011;1066;52.540;13.420;2023-02-01T05:49:33;15.73;;;5.70;;
2119;SDS011;1066;52.540;13.420;2023-02-01T05:51:58;14.53;;;4.20;;
2119;SDS011;1066;52.540;13.420;2023-02-01T05:54:24;21.10;;;5.37;;
2119;SDS011;1066;52.540;13.420;2023-02-01T05:56:49;13.93;;;4.63;;
2119;SDS011;1066;52.540;13.420;2023-02-01T05:59:14;13.50;;;4.40;;
2119;SDS011;1066;52.540;13.420;2023-02-01T06:01:40;22.83;;;6.20;;
2119;SDS011;1066;52.540;13.420;2023-02-01T06:04:05;8.87;;;3.70;;
2119;SDS011;1066;52.540;13.420;2023-02-01T06:06:30;7.23;;;3.83;;
2119;SDS011;1066;52.540;13.420;2023-02-01T06:08:56;14.30;;;4.10;;
2119;SDS011;1066;52.540;13.420;2023-02-01T06:11:21;15.90;;;3.70;;
2119;SDS011;1066;52.540;13.420;2023-02-01T06:13:46;10.33;;;4.37;;
2119;SDS011;1066;52.540;13.420;2023-02-01T06:16:12;17.17;;;5.03;;
2119;SDS011;1066;52.540;13.420;2023-02-01T06:18:38;7.60;;;3.53;;
2119;SDS011;1066;52.540;13.420;2023-02-01T06:21:04;15.07;;;3.80;;
2119;SDS011;1066;52.540;13.420;2023-02-01T06:23:29;13.10;;;3.80;;
2119;SDS011;1066;52.540;13.420;2023-02-01T06:26:02;12.07;;;3.80;;
2119;SDS011;1066;52.540;13.420;2023-02-01T06:28:29;17.30;;;4.93;;
2119;SDS011;1066;52.540;13.420;2023-02-01T06:30:55;14.50;;;4.33;;
2119;SDS011;1066;52.540;13.420;2023-02-01T06:33:20;18.87;;;5.47;;
2119;SDS011;1066;52.540;13.420;2023-02-01T06:35:46;15.80;;;4.20;;
2119;SDS011;1066;52.540;13.420;2023-02-01T06:38:12;16.77;;;4.77;;
2119;SDS011;1066;52.540;13.420;2023-02-01T06:40:38;17.20;;;4.90;;
2119;SDS011;1066;52.540;13.420;2023-02-01T06:43:03;11.47;;;3.80;;
2119;SDS011;1066;52.540;13.420;2023-02-01T06:45:29;15.33;;;5.20;;
2119;SDS011;1066;52.540;13.420;2023-02-01T06:47:54;10.43;;;4.83;;
2119;SDS011;1066;52.540;13.420;2023-02-01T06:50:20;14.97;;;4.30;;
2119;SDS011;1066;52.540;13.420;2023-02-01T06:52:45;17.93;;;5.40;;
2119;SDS011;1066;52.540;13.420;2023-02-01T06:55:10;15.93;;;4.67;;
2119;SDS011;1066;52.540;13.420;2023-02-01T06:57:36;10.37;;;4.27;;
2119;SDS011;1066;52.540;13.420;2023-02-01T07:00:04;18.33;;;5.50;;
2119;SDS011;1066;52.540;13.420;2023-02-01T07:02:33;11.30;;;4.23;;
2119;SDS011;1066;52.540;13.420;2023-02-01T07:04:58;18.53;;;4.57;;
2119;SDS011;1066;52.540;13.420;2023-02-01T07:07:24;14.37;;;5.77;;
2119;SDS011;1066;52.540;13.420;2023-02-01T07:09:49;11.53;;;3.77;;
2119;SDS011;1066;52.540;13.420;2023-02-01T07:12:14;12.90;;;3.90;;
2119;SDS011;1066;52.540;13.420;2023-02-01T07:14:40;11.47;;;3.70;;
2119;SDS011;1066;52.540;13.420;2023-02-01T07:17:05;7.10;;;3.20;;
2119;SDS011;1066;52.540;13.420;2023-02-01T07:19:30;15.73;;;4.17;;
2119;SDS011;1066;52.540;13.420;2023-02-01T07:21:56;10.07;;;3.93;;
2119;SDS011;1066;52.540;13.420;2023-02-01T07:24:21;11.20;;;4.33;;
2119;SDS011;1066;52.540;13.420;2023-02-01T07:26:47;12.70;;;3.93;;
2119;SDS011;1066;52.540;13.420;2023-02-01T07:29:12;13.80;;;4.80;;
2119;SDS011;1066;52.540;13.420;2023-02-01T07:31:38;8.47;;;4.53;;
2119;SDS011;1066;52.540;13.420;2023-02-01T07:34:04;14.87;;;4.83;;
2119;SDS011;1066;52.540;13.420;2023-02-01T07:36:29;11.03;;;4.43;;
2119;SDS011;1066;52.540;13.420;2023-02-01T07:38:55;10.73;;;4.03;;
2119;SDS011;1066;52.540;13.420;2023-02-01T07:41:20;13.27;;;4.40;;
2119;SDS011;1066;52.540;13.420;2023-02-01T07:43:45;7.80;;;4.37;;
2119;SDS011;1066;52.540;13.420;2023-02-01T07:46:11;12.60;;;4.20;;
2119;SDS011;1066;52.540;13.420;2023-02-01T07:48:36;12.57;;;4.77;;
2119;SDS011;1066;52.540;13.420;2023-02-01T07:51:06;10.23;;;3.90;;
2119;SDS011;1066;52.540;13.420;2023-02-01T07:53:42;7.23;;;3.97;;
2119;SDS011;1066;52.540;13.420;2023-02-01T07:56:16;11.93;;;4.33;;
2119;SDS011;1066;52.540;13.420;2023-02-01T07:58:43;10.83;;;4.27;;
2119;SDS011;1066;52.540;13.420;2023-02-01T08:01:16;9.57;;;4.30;;
2119;SDS011;1066;52.540;13.420;2023-02-01T08:03:45;10.80;;;5.53;;
2119;SDS011;1066;52.540;13.420;2023-02-01T08:06:11;14.17;;;4.63;;
2119;SDS011;1066;52.540;13.420;2023-02-01T08:08:36;10.20;;;5.73;;
2119;SDS011;1066;52.540;13.420;2023-02-01T08:11:02;6.63;;;5.23;;
2119;SDS011;1066;52.540;13.420;2023-02-01T08:13:28;15.00;;;5.47;;
2119;SDS011;1066;52.540;13.420;2023-02-01T08:15:58;8.20;;;3.90;;
2119;SDS011;1066;52.540;13.420;2023-02-01T08:18:24;10.13;;;3.80;;
2119;SDS011;1066;52.540;13.420;2023-02-01T08:20:49;12.50;;;5.30;;
2119;SDS011;1066;52.540;13.420;2023-02-01T08:23:15;11.97;;;8.00;;
2119;SDS011;1066;52.540;13.420;2023-02-01T08:25:42;12.20;;;6.17;;
2119;SDS011;1066;52.540;13.420;2023-02-01T08:28:07;10.90;;;4.83;;
2119;SDS011;1066;52.540;13.420;2023-02-01T08:30:33;16.53;;;5.70;;
2119;SDS011;1066;52.540;13.420;2023-02-01T08:33:00;17.47;;;6.10;;
2119;SDS011;1066;52.540;13.420;2023-02-01T08:35:26;10.70;;;4.40;;
2119;SDS011;1066;52.540;13.420;2023-02-01T08:37:51;11.53;;;5.63;;
2119;SDS011;1066;52.540;13.420;2023-02-01T08:40:16;13.43;;;5.90;;
2119;SDS011;1066;52.540;13.420;2023-02-01T08:42:42;7.70;;;5.70;;
2119;SDS011;1066;52.540;13.420;2023-02-01T08:45:16;19.40;;;6.73;;
2119;SDS011;1066;52.540;13.420;2023-02-01T08:47:45;9.43;;;4.80;;
2119;SDS011;1066;52.540;13.420;2023-02-01T08:50:12;9.57;;;4.40;;
2119;SDS011;1066;52.540;13.420;2023-02-01T08:52:37;7.17;;;3.80;;
2119;SDS011;1066;52.540;13.420;2023-02-01T08:55:03;5.90;;;3.90;;
2119;SDS011;1066;52.540;13.420;2023-02-01T08:57:29;9.57;;;4.87;;
2119;SDS011;1066;52.540;13.420;2023-02-01T08:59:55;8.40;;;4.03;;
2119;SDS011;1066;52.540;13.420;2023-02-01T09:02:21;9.13;;;3.63;;
2119;SDS011;1066;52.540;13.420;2023-02-01T09:04:46;6.97;;;3.93;;
2119;SDS011;1066;52.540;13.420;2023-02-01T09:07:11;7.80;;;3.30;;
2119;SDS011;1066;52.540;13.420;2023-02-01T09:09:38;9.77;;;4.60;;
2119;SDS011;1066;52.540;13.420;2023-02-01T09:12:03;12.80;;;5.07;;
2119;SDS011;1066;52.540;13.420;2023-02-01T09:14:29;8.70;;;4.03;;
2119;SDS011;1066;52.540;13.420;2023-02-01T09:16:54;5.90;;;4.33;;
2119;SDS011;1066;52.540;13.420;2023-02-01T09:19:20;6.50;;;3.53;;
2119;SDS011;1066;52.540;13.420;2023-02-01T09:21:45;6.13;;;3.80;;
2119;SDS011;1066;52.540;13.420;2023-02-01T09:24:11;5.93;;;3.83;;
2119;SDS011;1066;52.540;13.420;2023-02-01T09:26:37;9.20;;;3.70;;
2119;SDS011;1066;52.540;13.420;2023-02-01T09:29:03;8.70;;;3.53;;
2119;SDS011;1066;52.540;13.420;2023-02-01T09:31:29;7.90;;;3.80;;
2119;SDS011;1066;52.540;13.420;2023-02-01T09:33:54;13.37;;;3.40;;
2119;SDS011;1066;52.540;13.420;2023-02-01T09:36:20;5.17;;;2.40;;
2119;SDS011;1066;52.540;13.420;2023-02-01T09:38:46;3.57;;;2.53;;
2119;SDS011;1066;52.540;13.420;2023-02-01T09:46:43;6.33;;;2.20;;
2119;SDS011;1066;52.540;13.420;2023-02-01T09:49:28;4.70;;;1.80;;
2119;SDS011;1066;52.540;13.420;2023-02-01T09:51:56;5.73;;;2.70;;
2119;SDS011;1066;52.540;13.420;2023-02-01T09:54:23;4.13;;;1.80;;
2119;SDS011;1066;52.540;13.420;2023-02-01T09:59:43;3.60;;;2.10;;
2119;SDS011;1066;52.540;13.420;2023-02-01T10:02:14;5.73;;;1.40;;
2119;SDS011;1066;52.540;13.420;2023-02-01T10:04:42;6.00;;;1.90;;
2119;SDS011;1066;52.540;13.420;2023-02-01T10:07:28;5.60;;;1.93;;
2119;SDS011;1066;52.540;13.420;2023-02-01T10:10:09;5.63;;;2.67;;
2119;SDS011;1066;52.540;13.420;2023-02-01T10:15:43;5.00;;;1.50;;
2119;SDS011;1066;52.540;13.420;2023-02-01T10:18:34;3.97;;;2.10;;
2119;SDS011;1066;52.540;13.420;2023-02-01T10:21:14;5.83;;;3.10;;
2119;SDS011;1066;52.540;13.420;2023-02-01T10:26:39;9.87;;;5.87;;
2119;SDS011;1066;52.540;13.420;2023-02-01T10:29:12;2.83;;;2.40;;
2119;SDS011;1066;52.540;13.420;2023-02-01T10:31:41;3.00;;;2.57;;
2119;SDS011;1066;52.540;13.420;2023-02-01T10:34:13;6.00;;;2.83;;
2119;SDS011;1066;52.540;13.420;2023-02-01T10:37:01;5.60;;;2.33;;
2119;SDS011;1066;52.540;13.420;2023-02-01T10:39:37;4.30;;;2.13;;
2119;SDS011;1066;52.540;13.420;2023-02-01T10:42:02;4.90;;;2.60;;
2119;SDS011;1066;52.540;13.420;2023-02-01T10:44:28;8.53;;;2.97;;
2119;SDS011;1066;52.540;13.420;2023-02-01T10:46:55;10.23;;;3.40;;
2119;SDS011;1066;52.540;13.420;2023-02-01T10:49:22;4.90;;;2.40;;
2119;SDS011;1066;52.540;13.420;2023-02-01T10:51:55;3.60;;;2.50;;
2119;SDS011;1066;52.540;13.420;2023-02-01T10:54:35;3.50;;;2.03;;
2119;SDS011;1066;52.540;13.420;2023-02-01T10:57:03;5.63;;;2.17;;
2119;SDS011;1066;52.540;13.420;2023-02-01T10:59:32;4.43;;;3.00;;
2119;SDS011;1066;52.540;13.420;2023-02-01T11:02:02;3.20;;;2.00;;
2119;SDS011;1066;52.540;13.420;2023-02-01T11:04:38;5.40;;;3.10;;
2119;SDS011;1066;52.540;13.420;2023-02-01T11:07:05;5.70;;;1.93;;
2119;SDS011;1066;52.540;13.420;2023-02-01T11:09:50;5.67;;;2.70;;
2119;SDS011;1066;52.540;13.420;2023-02-01T11:12:25;5.60;;;3.17;;
2119;SDS011;1066;52.540;13.420;2023-02-01T11:14:56;9.70;;;4.53;;
2119;SDS011;1066;52.540;13.420;2023-02-01T11:17:26;4.53;;;3.20;;
2119;SDS011;1066;52.540;13.420;2023-02-01T11:19:57;6.33;;;3.20;;
2119;SDS011;1066;52.540;13.420;2023-02-01T11:22:25;4.43;;;2.10;;
2119;SDS011;1066;52.540;13.420;2023-02-01T11:24:52;7.07;;;2.80;;
2119;SDS011;1066;52.540;13.420;2023-02-01T11:27:19;8.83;;;3.13;;
2119;SDS011;1066;52.540;13.420;2023-02-01T11:29:47;8.37;;;3.10;;
2119;SDS011;1066;52.540;13.420;2023-02-01T11:32:17;8.37;;;3.63;;
2119;SDS011;1066;52.540;13.420;2023-02-01T11:34:43;8.23;;;4.10;;
2119;SDS011;1066;52.540;13.420;2023-02-01T11:39:56;10.53;;;4.80;;
2119;SDS011;1066;52.540;13.420;2023-02-01T11:42:23;11.93;;;5.27;;
2119;SDS011;1066;52.540;13.420;2023-02-01T11:44:48;6.97;;;3.60;;
2119;SDS011;1066;52.540;13.420;2023-02-01T11:49:53;11.90;;;4.27;;
2119;SDS011;1066;52.540;13.420;2023-02-01T12:09:01;8.50;;;3.20;;
2119;SDS011;1066;52.540;13.420;2023-02-01T12:15:19;15.50;;;4.20;;
2119;SDS011;1066;52.540;13.420;2023-02-01T12:28:36;5.27;;;2.63;;
2119;SDS011;1066;52.540;13.420;2023-02-01T12:31:44;11.77;;;3.80;;
2119;SDS011;1066;52.540;13.420;2023-02-01T12:39:39;5.30;;;2.63;;
2119;SDS011;1066;52.540;13.420;2023-02-01T12:42:26;6.90;;;2.90;;
2119;SDS011;1066;52.540;13.420;2023-02-01T12:44:59;6.17;;;3.10;;
2119;SDS011;1066;52.540;13.420;2023-02-01T12:47:33;10.40;;;2.80;;
2119;SDS011;1066;52.540;13.420;2023-02-01T12:50:13;10.67;;;3.37;;
2119;SDS011;1066;52.540;13.420;2023-02-01T12:55:16;7.60;;;3.10;;
2119;SDS011;1066;52.540;13.420;2023-02-01T12:58:31;5.53;;;2.37;;
2119;SDS011;1066;52.540;13.420;2023-02-01T13:00:39;7.43;;;2.57;;
2119;SDS011;1066;52.540;13.420;2023-02-01T13:05:58;6.93;;;2.83;;
2119;SDS011;1066;52.540;13.420;2023-02-01T13:09:19;8.83;;;2.80;;
2119;SDS011;1066;52.540;13.420;2023-02-01T13:11:55;7.37;;;2.67;;
2119;SDS011;1066;52.540;13.420;2023-02-01T13:16:53;4.07;;;2.60;;
2119;SDS011;1066;52.540;13.420;2023-02-01T13:22:02;14.70;;;10.23;;
2119;SDS011;1066;52.540;13.420;2023-02-01T13:24:49;4.13;;;2.30;;
2119;SDS011;1066;52.540;13.420;2023-02-01T13:27:17;2.77;;;1.60;;
2119;SDS011;1066;52.540;13.420;2023-02-01T13:29:48;3.00;;;2.13;;
2119;SDS011;1066;52.540;13.420;2023-02-01T13:40:35;9.77;;;2.73;;
2119;SDS011;1066;52.540;13.420;2023-02-01T13:46:02;7.53;;;4.37;;
2119;SDS011;1066;52.540;13.420;2023-02-01T13:48:36;12.03;;;3.83;;
2119;SDS011;1066;52.540;13.420;2023-02-01T13:51:04;6.33;;;2.77;;
2119;SDS011;1066;52.540;13.420;2023-02-01T13:53:36;9.10;;;2.60;;
2119;SDS011;1066;52.540;13.420;2023-02-01T13:56:03;17.77;;;3.10;;
2119;SDS011;1066;52.540;13.420;2023-02-01T13:58:40;8.77;;;3.17;;
2119;SDS011;1066;52.540;13.420;2023-02-01T14:03:48;7.77;;;3.17;;
2119;SDS011;1066;52.540;13.420;2023-02-01T14:06:16;8.37;;;3.10;;
2119;SDS011;1066;52.540;13.420;2023-02-01T14:16:44;5.93;;;2.50;;
2119;SDS011;1066;52.540;13.420;2023-02-01T14:19:30;5.47;;;2.97;;
2119;SDS011;1066;52.540;13.420;2023-02-01T14:21:58;6.57;;;3.83;;
2119;SDS011;1066;52.540;13.420;2023-02-01T14:24:29;10.00;;;3.80;;
2119;SDS011;1066;52.540;13.420;2023-02-01T14:26:57;7.20;;;3.27;;
2119;SDS011;1066;52.540;13.420;2023-02-01T14:29:26;6.93;;;3.60;;
2119;SDS011;1066;52.540;13.420;2023-02-01T14:31:59;9.97;;;3.10;;
2119;SDS011;1066;52.540;13.420;2023-02-01T14:37:08;13.10;;;4.20;;
2119;SDS011;1066;52.540;13.420;2023-02-01T14:39:47;8.70;;;3.60;;
2119;SDS011;1066;52.540;13.420;2023-02-01T14:47:42;12.57;;;3.40;;
2119;SDS011;1066;52.540;13.420;2023-02-01T14:55:26;7.87;;;3.10;;
2119;SDS011;1066;52.540;13.420;2023-02-01T14:57:56;7.57;;;3.20;;
2119;SDS011;1066;52.540;13.420;2023-02-01T15:00:24;12.07;;;4.00;;
2119;SDS011;1066;52.540;13.420;2023-02-01T15:02:53;7.67;;;3.63;;
2119;SDS011;1066;52.540;13.420;2023-02-01T15:05:23;10.03;;;3.70;;
2119;SDS011;1066;52.540;13.420;2023-02-01T15:07:51;10.70;;;2.90;;
2119;SDS011;1066;52.540;13.420;2023-02-01T15:10:17;7.50;;;2.90;;
2119;SDS011;1066;52.540;13.420;2023-02-01T15:12:45;4.33;;;2.80;;
2119;SDS011;1066;52.540;13.420;2023-02-01T15:18:04;6.77;;;2.80;;
2119;SDS011;1066;52.540;13.420;2023-02-01T15:20:30;7.13;;;2.87;;
2119;SDS011;1066;52.540;13.420;2023-02-01T15:25:27;3.73;;;2.30;;
2119;SDS011;1066;52.540;13.420;2023-02-01T15:27:53;4.20;;;2.30;;
2119;SDS011;1066;52.540;13.420;2023-02-01T15:30:23;4.40;;;3.03;;
2119;SDS011;1066;52.540;13.420;2023-02-01T15:33:04;6.40;;;2.33;;
2119;SDS011;1066;52.540;13.420;2023-02-01T15:38:32;2.70;;;1.90;;
2119;SDS011;1066;52.540;13.420;2023-02-01T15:43:33;3.50;;;2.27;;
2119;SDS011;1066;52.540;13.420;2023-02-01T15:46:13;2.60;;;2.40;;
2119;SDS011;1066;52.540;13.420;2023-02-01T15:48:43;2.37;;;1.83;;
2119;SDS011;1066;52.540;13.420;2023-02-01T15:51:20;2.70;;;2.47;;
2119;SDS011;1066;52.540;13.420;2023-02-01T15:53:48;6.07;;;2.90;;
2119;SDS011;1066;52.540;13.420;2023-02-01T15:56:20;10.57;;;3.27;;
2119;SDS011;1066;52.540;13.420;2023-02-01T15:58:48;3.47;;;2.07;;
2119;SDS011;1066;52.540;13.420;2023-02-01T16:01:16;9.77;;;2.50;;
2119;SDS011;1066;52.540;13.420;2023-02-01T16:03:43;3.90;;;2.20;;
2119;SDS011;1066;52.540;13.420;2023-02-01T16:06:11;3.67;;;1.90;;
2119;SDS011;1066;52.540;13.420;2023-02-01T16:08:38;4.90;;;1.90;;
2119;SDS011;1066;52.540;13.420;2023-02-01T16:11:40;7.53;;;2.20;;
2119;SDS011;1066;52.540;13.420;2023-02-01T16:14:07;1.77;;;1.67;;
2119;SDS011;1066;52.540;13.420;2023-02-01T16:16:32;2.30;;;1.30;;
2119;SDS011;1066;52.540;13.420;2023-02-01T16:18:57;3.70;;;1.40;;
2119;SDS011;1066;52.540;13.420;2023-02-01T16:21:23;1.63;;;1.50;;
2119;SDS011;1066;52.540;13.420;2023-02-01T16:23:49;3.70;;;1.70;;
2119;SDS011;1066;52.540;13.420;2023-02-01T16:26:15;1.60;;;1.30;;
2119;SDS011;1066;52.540;13.420;2023-02-01T16:28:41;4.03;;;1.30;;
2119;SDS011;1066;52.540;13.420;2023-02-01T16:31:09;1.80;;;1.30;;
2119;SDS011;1066;52.540;13.420;2023-02-01T16:33:46;5.57;;;1.60;;
2119;SDS011;1066;52.540;13.420;2023-02-01T16:36:13;2.80;;;2.07;;
2119;SDS011;1066;52.540;13.420;2023-02-01T16:38:39;1.20;;;1.10;;
2119;SDS011;1066;52.540;13.420;2023-02-01T16:41:04;2.03;;;1.80;;
2119;SDS011;1066;52.540;13.420;2023-02-01T16:43:30;2.07;;;1.50;;
2119;SDS011;1066;52.540;13.420;2023-02-01T16:45:58;1.50;;;1.20;;
2119;SDS011;1066;52.540;13.420;2023-02-01T16:48:26;2.40;;;1.20;;
2119;SDS011;1066;52.540;13.420;2023-02-01T16:50:55;2.03;;;1.70;;
2119;SDS011;1066;52.540;13.420;2023-02-01T16:53:22;1.40;;;1.13;;
2119;SDS011;1066;52.540;13.420;2023-02-01T16:55:48;1.83;;;1.60;;
2119;SDS011;1066;52.540;13.420;2023-02-01T16:58:15;1.70;;;1.50;;
2119;SDS011;1066;52.540;13.420;2023-02-01T17:00:41;3.87;;;1.50;;
2119;SDS011;1066;52.540;13.420;2023-02-01T17:03:06;1.57;;;1.27;;
2119;SDS011;1066;52.540;13.420;2023-02-01T17:05:32;6.60;;;1.67;;
2119;SDS011;1066;52.540;13.420;2023-02-01T17:07:59;2.30;;;1.73;;
2119;SDS011;1066;52.540;13.420;2023-02-01T17:10:28;3.10;;;2.07;;
2119;SDS011;1066;52.540;13.420;2023-02-01T17:12:54;4.20;;;2.63;;
2119;SDS011;1066;52.540;13.420;2023-02-01T17:15:19;2.70;;;2.10;;
2119;SDS011;1066;52.540;13.420;2023-02-01T17:17:45;3.30;;;2.17;;
2119;SDS011;1066;52.540;13.420;2023-02-01T17:20:20;2.97;;;2.63;;
2119;SDS011;1066;52.540;13.420;2023-02-01T17:22:47;4.50;;;1.97;;
2119;SDS011;1066;52.540;13.420;2023-02-01T17:25:16;2.63;;;1.93;;
2119;SDS011;1066;52.540;13.420;2023-02-01T17:27:42;3.37;;;2.20;;
2119;SDS011;1066;52.540;13.420;2023-02-01T17:30:09;2.27;;;2.10;;